sensor_id;sensor_type;location;lat;lon;timestamp;pressure;altitude;pressure_sealevel;temperature;humidity
76448;BME280;65284;51.040;13.722;2023-02-12T00:01:07;101698.41;;;5.35;91.20
76448;BME280;65284;51.040;13.722;2023-02-12T00:03:35;101694.44;;;5.28;91.35
76448;BME280;65284;51.040;13.722;2023-02-12T00:06:01;101695.09;;;5.32;91.31
76448;BME280;65284;51.040;13.722;2023-02-12T00:08:28;101708.22;;;5.33;91.50
76448;BME280;65284;51.040;13.722;2023-02-12T00:10:54;101707.72;;;5.27;91.77
76448;BME280;65284;51.040;13.722;2023-02-12T00:13:22;101702.44;;;5.27;91.52
76448;BME280;65284;51.040;13.722;2023-02-12T00:15:49;101703.13;;;5.30;91.39
76448;BME280;65284;51.040;13.722;2023-02-12T00:18:15;101714.50;;;5.31;91.87
76448;BME280;65284;51.040;13.722;2023-02-12T00:20:41;101703.13;;;5.30;91.84
76448;BME280;65284;51.040;13.722;2023-02-12T00:23:09;101710.25;;;5.28;91.58
76448;BME280;65284;51.040;13.722;2023-02-12T00:25:40;101709.28;;;5.29;91.73
76448;BME280;65284;51.040;13.722;2023-02-12T00:28:06;101720.78;;;5.28;91.82
76448;BME280;65284;51.040;13.722;2023-02-12T00:30:32;101720.78;;;5.28;91.53
76448;BME280;65284;51.040;13.722;2023-02-12T00:33:00;101720.78;;;5.28;91.73
76448;BME280;65284;51.040;13.722;2023-02-12T00:35:26;101720.94;;;5.25;92.02
76448;BME280;65284;51.040;13.722;2023-02-12T00:37:52;101718.41;;;5.23;91.97
76448;BME280;65284;51.040;13.722;2023-02-12T00:40:19;101720.94;;;5.25;92.00
76448;BME280;65284;51.040;13.722;2023-02-12T00:42:45;101708.63;;;5.25;91.76
76448;BME280;65284;51.040;13.722;2023-02-12T00:45:12;101711.19;;;5.27;91.64
76448;BME280;65284;51.040;13.722;2023-02-12T00:47:38;101712.88;;;5.28;91.79
76448;BME280;65284;51.040;13.722;2023-02-12T00:50:05;101724.25;;;5.29;91.66
76448;BME280;65284;51.040;13.722;2023-02-12T00:52:31;101724.94;;;5.32;91.70
76448;BME280;65284;51.040;13.722;2023-02-12T00:54:58;101718.25;;;5.27;91.68
76448;BME280;65284;51.040;13.722;2023-02-12T00:57:24;101720.09;;;5.24;92.03
76448;BME280;65284;51.040;13.722;2023-02-12T00:59:51;101720.78;;;5.28;91.82
76448;BME280;65284;51.040;13.722;2023-02-12T01:02:17;101719.09;;;5.27;92.17
76448;BME280;65284;51.040;13.722;2023-02-12T01:04:43;101732.31;;;5.25;92.19
76448;BME280;65284;51.040;13.722;2023-02-12T01:07:10;101722.81;;;5.23;91.90
76448;BME280;65284;51.040;13.722;2023-02-12T01:09:36;101739.50;;;5.23;92.31
76448;BME280;65284;51.040;13.722;2023-02-12T01:12:03;101731.59;;;5.23;92.25
76448;BME280;65284;51.040;13.722;2023-02-12T01:14:29;101739.50;;;5.23;92.40
76448;BME280;65284;51.040;13.722;2023-02-12T01:16:56;101739.56;;;5.22;92.00
76448;BME280;65284;51.040;13.722;2023-02-12T01:19:22;101738.44;;;5.26;92.10
76448;BME280;65284;51.040;13.722;2023-02-12T01:21:49;101742.19;;;5.22;91.90
76448;BME280;65284;51.040;13.722;2023-02-12T01:24:15;101738.63;;;5.23;91.84
76448;BME280;65284;51.040;13.722;2023-02-12T01:26:42;101738.44;;;5.26;91.92
76448;BME280;65284;51.040;13.722;2023-02-12T01:29:09;101743.72;;;5.26;91.90
76448;BME280;65284;51.040;13.722;2023-02-12T01:31:37;101735.91;;;5.24;91.90
76448;BME280;65284;51.040;13.722;2023-02-12T01:34:06;101734.91;;;5.27;91.87
76448;BME280;65284;51.040;13.722;2023-02-12T01:36:33;101736.75;;;5.25;92.37
76448;BME280;65284;51.040;13.722;2023-02-12T01:38:59;101740.00;;;5.30;92.37
76448;BME280;65284;51.040;13.722;2023-02-12T01:41:31;101758.84;;;5.22;92.06
76448;BME280;65284;51.040;13.722;2023-02-12T01:46:46;101739.56;;;5.22;92.18
76448;BME280;65284;51.040;13.722;2023-02-12T01:49:20;101739.56;;;5.22;92.20
76448;BME280;65284;51.040;13.722;2023-02-12T01:51:51;101737.59;;;5.25;92.40
76448;BME280;65284;51.040;13.722;2023-02-12T01:54:21;101752.56;;;5.25;92.38
76448;BME280;65284;51.040;13.722;2023-02-12T01:56:51;101741.84;;;5.28;92.24
76448;BME280;65284;51.040;13.722;2023-02-12T01:59:19;101742.34;;;5.35;91.80
76448;BME280;65284;51.040;13.722;2023-02-12T02:01:45;101738.28;;;5.29;92.15
76448;BME280;65284;51.040;13.722;2023-02-12T02:04:15;101742.03;;;5.25;92.13
76448;BME280;65284;51.040;13.722;2023-02-12T02:06:48;101745.59;;;5.24;92.42
76448;BME280;65284;51.040;13.722;2023-02-12T02:09:16;101748.25;;;5.24;92.32
76448;BME280;65284;51.040;13.722;2023-02-12T02:11:44;101741.69;;;5.31;92.08
76448;BME280;65284;51.040;13.722;2023-02-12T02:14:29;101745.34;;;5.29;92.31
76448;BME280;65284;51.040;13.722;2023-02-12T02:20:04;101731.31;;;5.28;92.24
76448;BME280;65284;51.040;13.722;2023-02-12T02:23:01;101747.28;;;5.25;92.25
76448;BME280;65284;51.040;13.722;2023-02-12T02:34:20;101739.63;;;5.20;92.45
76448;BME280;65284;51.040;13.722;2023-02-12T02:37:03;101742.13;;;5.23;92.58
76448;BME280;65284;51.040;13.722;2023-02-12T02:39:50;101737.78;;;5.22;92.35
76448;BME280;65284;51.040;13.722;2023-02-12T02:42:42;101736.91;;;5.22;92.48
76448;BME280;65284;51.040;13.722;2023-02-12T02:47:40;101739.50;;;5.23;92.33
76448;BME280;65284;51.040;13.722;2023-02-12T02:50:13;101747.47;;;5.22;92.62
76448;BME280;65284;51.040;13.722;2023-02-12T02:52:49;101744.06;;;5.20;92.36
76448;BME280;65284;51.040;13.722;2023-02-12T02:55:19;101756.31;;;5.21;92.56
76448;BME280;65284;51.040;13.722;2023-02-12T02:57:54;101749.16;;;5.23;92.30
76448;BME280;65284;51.040;13.722;2023-02-12T03:00:26;101757.16;;;5.21;92.56
76448;BME280;65284;51.040;13.722;2023-02-12T03:03:28;101763.09;;;5.25;92.34
76448;BME280;65284;51.040;13.722;2023-02-12T03:06:02;101769.31;;;5.24;92.20
76448;BME280;65284;51.040;13.722;2023-02-12T03:08:34;101759.69;;;5.23;92.12
76448;BME280;65284;51.040;13.722;2023-02-12T03:11:08;101771.09;;;5.23;92.32
76448;BME280;65284;51.040;13.722;2023-02-12T03:13:45;101768.47;;;5.23;92.29
76448;BME280;65284;51.040;13.722;2023-02-12T03:16:17;101777.22;;;5.24;92.09
76448;BME280;65284;51.040;13.722;2023-02-12T03:18:53;101777.22;;;5.24;92.48
76448;BME280;65284;51.040;13.722;2023-02-12T03:21:26;101771.09;;;5.23;92.43
76448;BME280;65284;51.040;13.722;2023-02-12T03:24:04;101785.84;;;5.26;92.55
76448;BME280;65284;51.040;13.722;2023-02-12T03:26:40;101784.16;;;5.25;92.40
76448;BME280;65284;51.040;13.722;2023-02-12T03:29:08;101784.94;;;5.27;92.30
76448;BME280;65284;51.040;13.722;2023-02-12T03:32:02;101783.22;;;5.26;92.38
76448;BME280;65284;51.040;13.722;2023-02-12T03:37:42;101799.13;;;5.24;92.85
76448;BME280;65284;51.040;13.722;2023-02-12T03:40:19;101806.19;;;5.24;92.84
76448;BME280;65284;51.040;13.722;2023-02-12T03:42:56;101807.09;;;5.23;92.80
76448;BME280;65284;51.040;13.722;2023-02-12T03:45:44;101800.13;;;5.22;92.63
76448;BME280;65284;51.040;13.722;2023-02-12T03:48:24;101821.28;;;5.20;93.17
76448;BME280;65284;51.040;13.722;2023-02-12T03:51:18;101817.63;;;5.23;92.92
76448;BME280;65284;51.040;13.722;2023-02-12T03:53:46;101827.31;;;5.22;93.08
76448;BME280;65284;51.040;13.722;2023-02-12T03:56:18;101825.81;;;5.18;92.84
76448;BME280;65284;51.040;13.722;2023-02-12T03:58:45;101829.19;;;5.20;93.20
76448;BME280;65284;51.040;13.722;2023-02-12T04:01:12;101839.72;;;5.20;93.29
76448;BME280;65284;51.040;13.722;2023-02-12T04:03:39;101844.91;;;5.22;93.39
76448;BME280;65284;51.040;13.722;2023-02-12T04:06:24;101845.69;;;5.24;92.85
76448;BME280;65284;51.040;13.722;2023-02-12T04:08:52;101852.13;;;5.18;93.39
76448;BME280;65284;51.040;13.722;2023-02-12T04:11:26;101862.56;;;5.20;93.18
76448;BME280;65284;51.040;13.722;2023-02-12T04:14:11;101843.66;;;5.29;93.13
76448;BME280;65284;51.040;13.722;2023-02-12T04:19:45;101856.72;;;5.15;93.45
76448;BME280;65284;51.040;13.722;2023-02-12T04:22:44;101863.84;;;5.13;93.57
76448;BME280;65284;51.040;13.722;2023-02-12T04:25:36;101861.81;;;5.18;93.99
76448;BME280;65284;51.040;13.722;2023-02-12T04:28:13;101854.00;;;5.16;93.79
76448;BME280;65284;51.040;13.722;2023-02-12T04:31:10;101855.16;;;5.11;94.04
76448;BME280;65284;51.040;13.722;2023-02-12T04:33:43;101860.44;;;5.11;94.18
76448;BME280;65284;51.040;13.722;2023-02-12T04:36:22;101853.63;;;5.07;93.86
76448;BME280;65284;51.040;13.722;2023-02-12T04:38:53;101857.97;;;5.08;93.98
76448;BME280;65284;51.040;13.722;2023-02-12T04:41:20;101859.41;;;5.13;93.83
76448;BME280;65284;51.040;13.722;2023-02-12T04:43:47;101856.88;;;5.12;93.89
76448;BME280;65284;51.040;13.722;2023-02-12T04:46:13;101855.31;;;5.08;93.88
76448;BME280;65284;51.040;13.722;2023-02-12T04:48:54;101864.16;;;5.07;94.10
76448;BME280;65284;51.040;13.722;2023-02-12T04:51:22;101863.47;;;5.03;94.03
76448;BME280;65284;51.040;13.722;2023-02-12T04:53:48;101861.28;;;5.11;94.11
76448;BME280;65284;51.040;13.722;2023-02-12T04:56:15;101863.38;;;5.05;93.60
76448;BME280;65284;51.040;13.722;2023-02-12T04:58:42;101865.06;;;5.06;93.90
76448;BME280;65284;51.040;13.722;2023-02-12T05:01:09;101863.22;;;5.08;94.01
76448;BME280;65284;51.040;13.722;2023-02-12T05:03:36;101873.84;;;5.06;93.81
76448;BME280;65284;51.040;13.722;2023-02-12T05:06:07;101865.94;;;5.06;94.03
76448;BME280;65284;51.040;13.722;2023-02-12T05:08:34;101871.44;;;5.01;94.21
76448;BME280;65284;51.040;13.722;2023-02-12T05:11:08;101869.75;;;5.00;94.47
76448;BME280;65284;51.040;13.722;2023-02-12T05:13:35;101873.22;;;5.01;94.17
76448;BME280;65284;51.040;13.722;2023-02-12T05:16:06;101867.88;;;5.02;94.04
76448;BME280;65284;51.040;13.722;2023-02-12T05:18:33;101869.59;;;5.04;94.18
76448;BME280;65284;51.040;13.722;2023-02-12T05:21:03;101872.28;;;5.02;94.28
76448;BME280;65284;51.040;13.722;2023-02-12T05:23:32;101877.50;;;5.04;94.40
76448;BME280;65284;51.040;13.722;2023-02-12T05:26:01;101899.31;;;5.06;94.51
76448;BME280;65284;51.040;13.722;2023-02-12T05:28:29;101881.81;;;5.05;94.22
76448;BME280;65284;51.040;13.722;2023-02-12T05:31:04;101879.19;;;5.05;94.55
76448;BME280;65284;51.040;13.722;2023-02-12T05:33:31;101888.78;;;5.06;94.20
76448;BME280;65284;51.040;13.722;2023-02-12T05:36:09;101892.19;;;5.08;93.96
76448;BME280;65284;51.040;13.722;2023-02-12T05:38:36;101888.72;;;5.07;94.25
76448;BME280;65284;51.040;13.722;2023-02-12T05:41:04;101888.03;;;5.04;94.05
76448;BME280;65284;51.040;13.722;2023-02-12T05:43:31;101886.31;;;5.02;94.15
76448;BME280;65284;51.040;13.722;2023-02-12T05:46:02;101882.75;;;5.04;94.15
76448;BME280;65284;51.040;13.722;2023-02-12T05:48:30;101891.66;;;5.01;94.36
76448;BME280;65284;51.040;13.722;2023-02-12T05:51:02;101886.75;;;5.11;93.91
76448;BME280;65284;51.040;13.722;2023-02-12T05:53:29;101895.94;;;5.04;94.14
76448;BME280;65284;51.040;13.722;2023-02-12T05:56:08;101898.47;;;5.05;93.81
76448;BME280;65284;51.040;13.722;2023-02-12T05:58:36;101892.59;;;5.00;93.90
76448;BME280;65284;51.040;13.722;2023-02-12T06:01:09;101897.78;;;5.01;93.97
76448;BME280;65284;51.040;13.722;2023-02-12T06:03:35;101894.97;;;5.05;94.13
76448;BME280;65284;51.040;13.722;2023-02-12T06:06:02;101902.72;;;5.08;93.81
76448;BME280;65284;51.040;13.722;2023-02-12T06:08:28;101909.69;;;5.09;93.62
76448;BME280;65284;51.040;13.722;2023-02-12T06:10:59;101900.72;;;5.13;93.68
76448;BME280;65284;51.040;13.722;2023-02-12T06:13:25;101897.56;;;5.06;93.77
76448;BME280;65284;51.040;13.722;2023-02-12T06:15:52;101916.84;;;5.07;93.86
76448;BME280;65284;51.040;13.722;2023-02-12T06:18:18;101913.09;;;5.11;93.70
76448;BME280;65284;51.040;13.722;2023-02-12T06:20:45;101923.63;;;5.11;93.73
76448;BME280;65284;51.040;13.722;2023-02-12T06:23:11;101923.47;;;5.14;93.36
76448;BME280;65284;51.040;13.722;2023-02-12T06:25:38;101929.44;;;5.17;93.34
76448;BME280;65284;51.040;13.722;2023-02-12T06:28:04;101933.84;;;5.17;93.11
76448;BME280;65284;51.040;13.722;2023-02-12T06:30:33;101930.47;;;5.15;93.18
76448;BME280;65284;51.040;13.722;2023-02-12T06:32:59;101933.84;;;5.17;93.49
76448;BME280;65284;51.040;13.722;2023-02-12T06:35:27;101933.94;;;5.15;93.29
76448;BME280;65284;51.040;13.722;2023-02-12T06:37:53;101944.53;;;5.14;93.52
76448;BME280;65284;51.040;13.722;2023-02-12T06:40:20;101951.53;;;5.15;93.09
76448;BME280;65284;51.040;13.722;2023-02-12T06:42:46;101946.19;;;5.16;93.23
76448;BME280;65284;51.040;13.722;2023-02-12T06:45:15;101949.97;;;5.28;93.18
76448;BME280;65284;51.040;13.722;2023-02-12T06:47:41;101962.66;;;5.20;92.84
76448;BME280;65284;51.040;13.722;2023-02-12T06:50:08;101969.88;;;5.16;93.28
76448;BME280;65284;51.040;13.722;2023-02-12T06:52:34;101972.50;;;5.16;93.15
76448;BME280;65284;51.040;13.722;2023-02-12T06:55:01;101979.56;;;5.16;93.35
76448;BME280;65284;51.040;13.722;2023-02-12T06:57:28;101969.50;;;5.24;93.25
76448;BME280;65284;51.040;13.722;2023-02-12T06:59:55;101984.69;;;5.19;93.27
76448;BME280;65284;51.040;13.722;2023-02-12T07:02:22;101980.56;;;5.31;92.67
76448;BME280;65284;51.040;13.722;2023-02-12T07:04:48;101982.69;;;5.24;92.92
76448;BME280;65284;51.040;13.722;2023-02-12T07:07:14;101986.22;;;5.23;92.96
76448;BME280;65284;51.040;13.722;2023-02-12T07:09:42;101981.09;;;5.20;92.68
76448;BME280;65284;51.040;13.722;2023-02-12T07:12:08;101984.59;;;5.20;92.72
76448;BME280;65284;51.040;13.722;2023-02-12T07:14:35;101985.91;;;5.29;92.14
76448;BME280;65284;51.040;13.722;2023-02-12T07:17:01;101993.28;;;5.22;92.34
76448;BME280;65284;51.040;13.722;2023-02-12T07:19:29;101995.59;;;5.29;92.89
76448;BME280;65284;51.040;13.722;2023-02-12T07:21:56;101994.91;;;5.25;92.60
76448;BME280;65284;51.040;13.722;2023-02-12T07:24:22;101992.81;;;5.32;92.61
76448;BME280;65284;51.040;13.722;2023-02-12T07:26:48;101991.00;;;5.32;91.86
76448;BME280;65284;51.040;13.722;2023-02-12T07:29:15;101998.91;;;5.32;92.24
76448;BME280;65284;51.040;13.722;2023-02-12T07:31:42;101995.44;;;5.32;92.50
76448;BME280;65284;51.040;13.722;2023-02-12T07:34:09;101991.97;;;5.31;92.30
76448;BME280;65284;51.040;13.722;2023-02-12T07:36:36;101995.69;;;5.27;92.34
76448;BME280;65284;51.040;13.722;2023-02-12T07:39:03;101994.75;;;5.28;92.85
76448;BME280;65284;51.040;13.722;2023-02-12T07:41:32;101997.31;;;5.30;92.77
76448;BME280;65284;51.040;13.722;2023-02-12T07:44:01;102005.91;;;5.33;92.36
76448;BME280;65284;51.040;13.722;2023-02-12T07:46:38;102002.97;;;5.39;92.34
76448;BME280;65284;51.040;13.722;2023-02-12T07:49:06;102004.50;;;5.43;91.96
76448;BME280;65284;51.040;13.722;2023-02-12T07:51:36;101999.56;;;5.37;92.13
76448;BME280;65284;51.040;13.722;2023-02-12T07:54:03;102011.03;;;5.36;92.11
76448;BME280;65284;51.040;13.722;2023-02-12T07:56:32;102013.72;;;5.52;92.43
76448;BME280;65284;51.040;13.722;2023-02-12T07:59:02;102008.06;;;5.60;91.91
76448;BME280;65284;51.040;13.722;2023-02-12T08:01:37;102010.00;;;5.56;92.01
76448;BME280;65284;51.040;13.722;2023-02-12T08:04:07;102019.69;;;5.56;91.92
76448;BME280;65284;51.040;13.722;2023-02-12T08:06:36;102023.25;;;5.55;91.73
76448;BME280;65284;51.040;13.722;2023-02-12T08:09:06;102020.84;;;5.50;91.87
76448;BME280;65284;51.040;13.722;2023-02-12T08:11:33;102025.09;;;5.53;91.71
76448;BME280;65284;51.040;13.722;2023-02-12T08:13:59;102023.56;;;5.48;92.26
76448;BME280;65284;51.040;13.722;2023-02-12T08:16:27;102028.84;;;5.48;92.06
76448;BME280;65284;51.040;13.722;2023-02-12T08:18:55;102027.00;;;5.51;92.08
76448;BME280;65284;51.040;13.722;2023-02-12T08:21:32;102031.31;;;5.52;92.19
76448;BME280;65284;51.040;13.722;2023-02-12T08:23:59;102036.59;;;5.52;92.05
76448;BME280;65284;51.040;13.722;2023-02-12T08:26:34;102037.22;;;5.57;91.83
76448;BME280;65284;51.040;13.722;2023-02-12T08:29:03;102035.34;;;5.59;91.54
76448;BME280;65284;51.040;13.722;2023-02-12T08:31:33;102038.84;;;5.59;91.19
76448;BME280;65284;51.040;13.722;2023-02-12T08:34:00;102039.00;;;5.56;91.46
76448;BME280;65284;51.040;13.722;2023-02-12T08:36:29;102040.75;;;5.56;91.36
76448;BME280;65284;51.040;13.722;2023-02-12T08:38:57;102034.66;;;5.55;91.43
76448;BME280;65284;51.040;13.722;2023-02-12T08:41:26;102035.50;;;5.56;91.69
76448;BME280;65284;51.040;13.722;2023-02-12T08:43:58;102038.22;;;5.54;91.71
76448;BME280;65284;51.040;13.722;2023-02-12T08:46:28;102045.13;;;5.57;91.34
76448;BME280;65284;51.040;13.722;2023-02-12T08:48:58;102048.91;;;5.51;91.74
76448;BME280;65284;51.040;13.722;2023-02-12T08:51:30;102048.22;;;5.47;91.85
76448;BME280;65284;51.040;13.722;2023-02-12T08:54:00;102060.16;;;5.55;91.22
76448;BME280;65284;51.040;13.722;2023-02-12T08:56:28;102054.72;;;5.58;90.97
76448;BME280;65284;51.040;13.722;2023-02-12T08:58:59;102065.81;;;5.64;90.83
76448;BME280;65284;51.040;13.722;2023-02-12T09:01:27;102063.41;;;5.60;90.94
76448;BME280;65284;51.040;13.722;2023-02-12T09:03:55;102065.28;;;5.58;91.44
76448;BME280;65284;51.040;13.722;2023-02-12T09:06:22;102073.34;;;5.55;91.28
76448;BME280;65284;51.040;13.722;2023-02-12T09:08:51;102069.31;;;5.65;91.40
76448;BME280;65284;51.040;13.722;2023-02-12T09:11:20;102072.69;;;5.67;91.16
76448;BME280;65284;51.040;13.722;2023-02-12T09:13:49;102074.59;;;5.65;90.97
76448;BME280;65284;51.040;13.722;2023-02-12T09:16:16;102073.50;;;5.69;91.17
76448;BME280;65284;51.040;13.722;2023-02-12T09:18:42;102077.91;;;5.68;90.71
76448;BME280;65284;51.040;13.722;2023-02-12T09:21:13;102075.97;;;5.72;90.87
76448;BME280;65284;51.040;13.722;2023-02-12T09:23:42;102077.75;;;5.72;91.15
76448;BME280;65284;51.040;13.722;2023-02-12T09:26:14;102084.41;;;5.79;90.75
76448;BME280;65284;51.040;13.722;2023-02-12T09:28:41;102077.50;;;5.76;90.82
76448;BME280;65284;51.040;13.722;2023-02-12T09:31:10;102081.09;;;5.75;90.74
76448;BME280;65284;51.040;13.722;2023-02-12T09:33:37;102087.28;;;5.74;90.99
76448;BME280;65284;51.040;13.722;2023-02-12T09:36:09;102081.00;;;5.77;90.52
76448;BME280;65284;51.040;13.722;2023-02-12T09:38:36;102084.09;;;5.85;90.43
76448;BME280;65284;51.040;13.722;2023-02-12T09:41:20;102092.50;;;5.93;90.33
76448;BME280;65284;51.040;13.722;2023-02-12T09:46:31;102097.38;;;6.01;89.73
76448;BME280;65284;51.040;13.722;2023-02-12T09:51:39;102094.91;;;5.98;90.56
76448;BME280;65284;51.040;13.722;2023-02-12T09:54:14;102094.13;;;5.96;90.74
76448;BME280;65284;51.040;13.722;2023-02-12T09:56:45;102107.00;;;6.02;90.33
76448;BME280;65284;51.040;13.722;2023-02-12T09:59:27;102101.56;;;6.05;90.06
76448;BME280;65284;51.040;13.722;2023-02-12T10:01:57;102102.09;;;6.11;90.03
76448;BME280;65284;51.040;13.722;2023-02-12T10:04:24;102100.13;;;6.15;90.19
76448;BME280;65284;51.040;13.722;2023-02-12T10:07:10;102095.31;;;6.23;89.19
76448;BME280;65284;51.040;13.722;2023-02-12T10:12:59;102105.69;;;6.26;89.47
76448;BME280;65284;51.040;13.722;2023-02-12T10:18:37;102103.91;;;6.27;89.10
76448;BME280;65284;51.040;13.722;2023-02-12T10:24:04;102111.75;;;6.28;88.71
76448;BME280;65284;51.040;13.722;2023-02-12T10:26:46;102100.09;;;6.32;88.59
76448;BME280;65284;51.040;13.722;2023-02-12T10:29:22;102105.19;;;6.35;88.05
76448;BME280;65284;51.040;13.722;2023-02-12T10:32:03;102110.31;;;6.38;87.64
76448;BME280;65284;51.040;13.722;2023-02-12T10:34:35;102100.31;;;6.45;87.64
76448;BME280;65284;51.040;13.722;2023-02-12T10:37:04;102097.34;;;6.51;87.57
76448;BME280;65284;51.040;13.722;2023-02-12T10:39:38;102091.28;;;6.49;87.68
76448;BME280;65284;51.040;13.722;2023-02-12T10:42:37;102097.22;;;6.53;87.09
76448;BME280;65284;51.040;13.722;2023-02-12T10:45:04;102094.69;;;6.51;86.70
76448;BME280;65284;51.040;13.722;2023-02-12T10:47:31;102091.44;;;6.62;86.82
76448;BME280;65284;51.040;13.722;2023-02-12T10:49:59;102093.34;;;6.60;86.71
76448;BME280;65284;51.040;13.722;2023-02-12T10:52:47;102100.84;;;6.83;86.78
76448;BME280;65284;51.040;13.722;2023-02-12T10:55:30;102104.41;;;6.82;86.05
76448;BME280;65284;51.040;13.722;2023-02-12T10:57:58;102098.38;;;6.80;85.62
76448;BME280;65284;51.040;13.722;2023-02-12T11:00:32;102103.91;;;6.76;85.61
76448;BME280;65284;51.040;13.722;2023-02-12T11:05:42;102087.03;;;6.94;84.36
76448;BME280;65284;51.040;13.722;2023-02-12T11:08:27;102088.66;;;6.97;84.18
76448;BME280;65284;51.040;13.722;2023-02-12T11:11:02;102099.28;;;7.11;83.28
76448;BME280;65284;51.040;13.722;2023-02-12T11:13:30;102086.84;;;6.97;84.27
76448;BME280;65284;51.040;13.722;2023-02-12T11:15:57;102087.88;;;6.95;83.31
76448;BME280;65284;51.040;13.722;2023-02-12T11:18:29;102089.84;;;7.07;82.39
76448;BME280;65284;51.040;13.722;2023-02-12T11:21:06;102079.47;;;7.04;83.07
76448;BME280;65284;51.040;13.722;2023-02-12T11:23:42;102085.31;;;7.09;82.19
76448;BME280;65284;51.040;13.722;2023-02-12T11:28:58;102075.44;;;6.97;82.63
76448;BME280;65284;51.040;13.722;2023-02-12T11:31:33;102078.50;;;7.05;82.19
76448;BME280;65284;51.040;13.722;2023-02-12T11:36:32;102081.41;;;7.16;81.79
76448;BME280;65284;51.040;13.722;2023-02-12T11:39:00;102075.38;;;6.98;82.12
76448;BME280;65284;51.040;13.722;2023-02-12T11:41:37;102076.56;;;6.93;82.71
76448;BME280;65284;51.040;13.722;2023-02-12T11:44:17;102085.81;;;7.16;82.03
76448;BME280;65284;51.040;13.722;2023-02-12T11:46:49;102078.84;;;6.99;83.12
76448;BME280;65284;51.040;13.722;2023-02-12T11:49:23;102077.47;;;7.07;82.17
76448;BME280;65284;51.040;13.722;2023-02-12T11:51:53;102081.06;;;6.91;81.50
76448;BME280;65284;51.040;13.722;2023-02-12T11:54:27;102078.94;;;6.81;81.37
76448;BME280;65284;51.040;13.722;2023-02-12T11:56:54;102074.63;;;6.80;82.80
76448;BME280;65284;51.040;13.722;2023-02-12T11:59:38;102078.00;;;6.82;83.24
76448;BME280;65284;51.040;13.722;2023-02-12T12:02:18;102074.44;;;6.83;82.73
76448;BME280;65284;51.040;13.722;2023-02-12T12:04:48;102079.63;;;6.85;82.28
76448;BME280;65284;51.040;13.722;2023-02-12T12:07:22;102075.97;;;6.88;82.59
76448;BME280;65284;51.040;13.722;2023-02-12T12:12:37;102078.50;;;6.73;83.05
76448;BME280;65284;51.040;13.722;2023-02-12T12:15:16;102081.75;;;6.63;82.68
76448;BME280;65284;51.040;13.722;2023-02-12T12:18:12;102086.34;;;6.59;81.47
76448;BME280;65284;51.040;13.722;2023-02-12T12:21:08;102079.88;;;6.65;82.07
76448;BME280;65284;51.040;13.722;2023-02-12T12:23:44;102074.69;;;6.63;82.24
76448;BME280;65284;51.040;13.722;2023-02-12T12:26:15;102078.34;;;6.60;83.39
76448;BME280;65284;51.040;13.722;2023-02-12T12:31:40;102070.34;;;6.62;83.83
76448;BME280;65284;51.040;13.722;2023-02-12T12:34:11;102071.09;;;6.64;83.83
76448;BME280;65284;51.040;13.722;2023-02-12T12:37:15;102062.78;;;6.72;82.74
76448;BME280;65284;51.040;13.722;2023-02-12T12:40:00;102065.91;;;6.78;82.58
76448;BME280;65284;51.040;13.722;2023-02-12T12:42:58;102058.94;;;6.77;83.02
76448;BME280;65284;51.040;13.722;2023-02-12T12:45:41;102059.84;;;6.76;82.88
76448;BME280;65284;51.040;13.722;2023-02-12T12:51:22;102060.97;;;6.72;83.28
76448;BME280;65284;51.040;13.722;2023-02-12T12:54:20;102048.13;;;6.66;83.21
76448;BME280;65284;51.040;13.722;2023-02-12T12:57:07;102051.03;;;6.77;83.26
76448;BME280;65284;51.040;13.722;2023-02-12T13:00:07;102056.19;;;6.79;84.14
76448;BME280;65284;51.040;13.722;2023-02-12T13:05:45;102049.63;;;6.70;84.62
76448;BME280;65284;51.040;13.722;2023-02-12T13:08:30;102047.50;;;6.77;84.23
76448;BME280;65284;51.040;13.722;2023-02-12T13:11:01;102046.81;;;6.73;84.46
76448;BME280;65284;51.040;13.722;2023-02-12T13:13:36;102050.06;;;6.78;84.79
76448;BME280;65284;51.040;13.722;2023-02-12T13:19:08;102048.22;;;6.80;84.34
76448;BME280;65284;51.040;13.722;2023-02-12T13:21:56;102053.81;;;6.74;85.06
76448;BME280;65284;51.040;13.722;2023-02-12T13:25:00;102042.16;;;6.78;85.59
76448;BME280;65284;51.040;13.722;2023-02-12T13:27:25;102046.22;;;6.68;86.24
76448;BME280;65284;51.040;13.722;2023-02-12T13:30:20;102056.53;;;6.73;86.50
76448;BME280;65284;51.040;13.722;2023-02-12T13:32:59;102045.63;;;6.79;86.33
76448;BME280;65284;51.040;13.722;2023-02-12T13:35:28;102048.69;;;6.71;86.78
76448;BME280;65284;51.040;13.722;2023-02-12T13:37:57;102047.00;;;6.70;87.34
76448;BME280;65284;51.040;13.722;2023-02-12T13:40:28;102047.66;;;6.74;87.55
76448;BME280;65284;51.040;13.722;2023-02-12T13:43:03;102041.72;;;6.70;87.48
76448;BME280;65284;51.040;13.722;2023-02-12T13:45:42;102045.47;;;6.82;87.55
76448;BME280;65284;51.040;13.722;2023-02-12T13:48:26;102050.31;;;6.74;87.91
76448;BME280;65284;51.040;13.722;2023-02-12T13:54:03;102050.31;;;6.74;88.16
76448;BME280;65284;51.040;13.722;2023-02-12T13:56:42;102045.63;;;6.79;87.55
76448;BME280;65284;51.040;13.722;2023-02-12T14:01:59;102041.56;;;6.89;87.16
76448;BME280;65284;51.040;13.722;2023-02-12T14:04:30;102043.09;;;6.77;87.28
76448;BME280;65284;51.040;13.722;2023-02-12T14:07:06;102048.28;;;6.79;87.30
76448;BME280;65284;51.040;13.722;2023-02-12T14:09:36;102039.84;;;6.72;87.75
76448;BME280;65284;51.040;13.722;2023-02-12T14:12:06;102048.38;;;6.77;87.18
76448;BME280;65284;51.040;13.722;2023-02-12T14:14:38;102056.44;;;6.74;87.46
76448;BME280;65284;51.040;13.722;2023-02-12T14:20:22;102050.66;;;6.83;87.30
76448;BME280;65284;51.040;13.722;2023-02-12T14:27:44;102052.59;;;6.80;87.57
76448;BME280;65284;51.040;13.722;2023-02-12T14:40:47;102053.81;;;6.74;87.72